Text Box: All records at near 07:00 local time
Kleivo 1 weather for Jan 2009
Month no. 26
Obs.
Da.
Temp. Dew Point Precip. Wind
Speed
Wind gusts Cloud cover Press. Humidity Wind dir. Sunny OPT
01.01.2009 -2,9   0,0 0,0   1 1010,7 89,0 0,0   52,5 %
02.01.2009 -1,5   0,0 0,0   1 1013,1 79,0 0,0   55,0 %
03.01.2009 3,8   0,0 0,0   1 996,8 94,0 0,0   60,0 %
04.01.2009 -2,8   10,9 0,0   1 996,2 93,0 0,0   45,0 %
05.01.2009 -6,5   0,0 0,0   10 1011,4 81,0 0,0 1 75,0 %
06.01.2009 0,5   0,0 0,0   10 1005,0 79,0 0,0 1 80,0 %
07.01.2009 -3,2   8,7 0,0   1 998,2 88,0 0,0   47,5 %
08.01.2009 5,1   0,5 0,0   1 997,2 95,0 0,0   62,5 %
09.01.2009 6,4   10,7 0,0   1 999,5 95,0 0,0   55,0 %
10.01.2009 5,0   24,5 0,0   1 1000,6 83,0 0,0   42,5 %
11.01.2009 6,6   24,5 0,0   1 985,7 94,0 0,0   42,5 %
12.01.2009 7,2   24,5 0,0   0 972,8 95,0 0,0   40,0 %
13.01.2009 5,6   2,6 0,0   1 975,5 90,0 0,0   62,5 %
14.01.2009 0,8   1,0 0,0   7 989,4 91,0 0,0   72,5 %
15.01.2009 1,1   4,0 0,0   3 999,2 86,0 0,0 1 60,0 %
16.01.2009 3,0   1,0 0,0   1 998,5 59,0 0,0   60,0 %
17.01.2009 5,3   2,0 0,0   2 990,1 59,0 0,0   65,0 %
18.01.2009 6,1   1,0 0,0   3 969,4 55,0 0,0 1 67,5 %
19.01.2009 3,1   4,1 0,0   1 967,4 84,0 0,0   57,5 %
20.01.2009 2,9   2,0 0,0   2 960,3 70,0 0,0   62,5 %
21.01.2009 2,1   3,6 92,5   1 971,4 94,0 0,0   30,0 %
22.01.2009 3,5   10,7 0,0   1 977,5 80,0 0,0   52,5 %
23.01.2009 3,2   0,5 0,0   1 961,6 77,0 0,0   60,0 %
24.01.2009 0,7   0,5 0,0   1 963,0 86,0 0,0   57,5 %
25.01.2009 2,7   4,0 0,0   1 975,2 80,0 0,0   57,5 %
26.01.2009 4,8   0,0 0,0   1 984,6 55,0 0,0   60,0 %
27.01.2009 2,4   0,0 0,0   1 993,1 71,0 0,0   57,5 %
28.01.2009 3,2   0,0 0,0   1 995,1 83,0 0,0   60,0 %
29.01.2009 4,2   2,0 0,0   1 1003,6 85,0 0,0   60,0 %
30.01.2009 -0,7   0,0 0,0   10 1007,7 92,0 0,0 1 77,5 %
31.01.2009 -0,9   0,0 0,0   10 1008,0 86,0 0,0 1 77,5 %
Avrg/Sum 2,3   143,3 3,0   2,5 989,6 82,2 0,0 6 58,5 %